Time;durP1;ratioP1;P1;durP2;ratioP2;P2;SDS_P1;SDS_P2;PMS_P1;PMS_P2;Temp;Humidity;BMP_temperature;BMP_pressure;BME280_temperature;BME280_humidity;BME280_pressure;Samples;Min_cycle;Max_cycle;Signal;HPM_P1;HPM_P2
2023/07/24 00:00:58;;;;;;;5.27;5.07;;;;;;;;;;4879549;29;20458;-86
2023/07/24 00:03:24;;;;;;;4.27;4.07;;;;;;;;;;4873896;29;20457;-84
2023/07/24 00:05:50;;;;;;;5.37;5.13;;;;;;;;;;4876368;29;20460;-85
2023/07/24 00:08:16;;;;;;;4.97;4.77;;;;;;;;;;4876670;29;20588;-87
2023/07/24 00:10:42;;;;;;;4.83;4.53;;;;;;;;;;4877023;29;20444;-86
2023/07/24 00:13:08;;;;;;;4.67;4.40;;;;;;;;;;4879686;29;20533;-85
2023/07/24 00:15:34;;;;;;;5.97;5.57;;;;;;;;;;4880439;29;20469;-84
2023/07/24 00:18:00;;;;;;;5.33;5.00;;;;;;;;;;4867911;29;20457;-85
2023/07/24 00:20:26;;;;;;;4.67;4.30;;;;;;;;;;4880532;29;20438;-86
2023/07/24 00:22:52;;;;;;;4.67;4.57;;;;;;;;;;4876113;29;21180;-85
2023/07/24 00:25:18;;;;;;;5.23;4.97;;;;;;;;;;4878784;29;20520;-86
2023/07/24 00:27:44;;;;;;;7.83;4.60;;;;;;;;;;4876011;29;20579;-85
2023/07/24 00:30:11;;;;;;;5.03;4.73;;;;;;;;;;4879444;29;20483;-86
2023/07/24 00:32:37;;;;;;;4.97;4.67;;;;;;;;;;4874821;29;20454;-85
2023/07/24 00:35:03;;;;;;;4.80;4.60;;;;;;;;;;4879624;29;20830;-83
2023/07/24 00:37:29;;;;;;;5.20;5.00;;;;;;;;;;4858031;29;20465;-86
2023/07/24 00:39:55;;;;;;;5.07;4.70;;;;;;;;;;4878757;29;20455;-85
2023/07/24 00:42:21;;;;;;;5.63;4.60;;;;;;;;;;4875365;29;20441;-87
2023/07/24 00:44:47;;;;;;;4.93;4.63;;;;;;;;;;4880062;29;20429;-86
2023/07/24 00:47:13;;;;;;;15.50;4.87;;;;;;;;;;4876099;29;20480;-85
2023/07/24 00:49:39;;;;;;;5.70;5.37;;;;;;;;;;4877982;29;20515;-84
2023/07/24 00:52:05;;;;;;;4.90;4.63;;;;;;;;;;4875760;29;20460;-85
2023/07/24 00:54:33;;;;;;;5.40;5.10;;;;;;;;;;4877149;29;20512;-85
2023/07/24 00:56:59;;;;;;;5.13;4.83;;;;;;;;;;4874571;29;20453;-85
2023/07/24 00:59:25;;;;;;;10.90;5.80;;;;;;;;;;4880006;29;20468;-85
2023/07/24 01:01:51;;;;;;;7.10;4.70;;;;;;;;;;4873521;29;20477;-85
2023/07/24 01:04:17;;;;;;;5.10;4.77;;;;;;;;;;4878082;29;20434;-86
2023/07/24 01:06:43;;;;;;;5.30;4.77;;;;;;;;;;4876671;29;20441;-85
2023/07/24 01:09:10;;;;;;;4.70;4.50;;;;;;;;;;4885216;29;20595;-87
2023/07/24 01:11:36;;;;;;;4.40;4.20;;;;;;;;;;4878234;29;21407;-85
2023/07/24 01:14:10;;;;;;;4.70;4.40;;;;;;;;;;4879096;29;20794;-85
2023/07/24 01:16:40;;;;;;;6.73;4.70;;;;;;;;;;4876383;29;20485;-84
2023/07/24 01:19:12;;;;;;;4.67;4.37;;;;;;;;;;4874923;29;20464;-84
2023/07/24 01:22:05;;;;;;;4.40;4.10;;;;;;;;;;4877910;29;20526;-86
2023/07/24 01:24:35;;;;;;;4.87;4.50;;;;;;;;;;4844804;29;20438;-85
2023/07/24 01:27:01;;;;;;;4.33;4.13;;;;;;;;;;4877926;29;20448;-85
2023/07/24 01:29:27;;;;;;;4.70;4.40;;;;;;;;;;4875959;29;20449;-86
2023/07/24 01:31:53;;;;;;;3.60;3.50;;;;;;;;;;4877191;29;20445;-84
2023/07/24 01:34:19;;;;;;;5.00;4.23;;;;;;;;;;4871529;29;20445;-84
2023/07/24 01:36:45;;;;;;;4.30;4.20;;;;;;;;;;4881133;29;20572;-85
2023/07/24 01:39:11;;;;;;;3.70;3.40;;;;;;;;;;4887732;29;20453;-85
2023/07/24 01:41:38;;;;;;;3.97;3.87;;;;;;;;;;4879306;29;20433;-83
2023/07/24 01:44:05;;;;;;;3.77;3.57;;;;;;;;;;4877499;29;20482;-87
2023/07/24 01:46:31;;;;;;;3.67;3.53;;;;;;;;;;4881107;29;21011;-84
2023/07/24 01:48:57;;;;;;;4.83;4.43;;;;;;;;;;4874550;29;20445;-86
2023/07/24 01:51:23;;;;;;;4.27;4.13;;;;;;;;;;4877088;29;20964;-85
2023/07/24 01:53:49;;;;;;;3.77;3.67;;;;;;;;;;4873935;29;20432;-85
2023/07/24 01:56:15;;;;;;;4.73;4.53;;;;;;;;;;4876054;29;20514;-84
2023/07/24 01:58:41;;;;;;;4.40;4.20;;;;;;;;;;4873065;29;20468;-85
2023/07/24 02:01:07;;;;;;;4.83;4.50;;;;;;;;;;4874840;29;20513;-86
2023/07/24 02:03:33;;;;;;;5.80;5.53;;;;;;;;;;4863228;29;20450;-84
2023/07/24 02:05:59;;;;;;;5.10;4.90;;;;;;;;;;4879623;29;20460;-86
2023/07/24 02:08:25;;;;;;;4.83;4.73;;;;;;;;;;4879155;29;20446;-85
2023/07/24 02:10:51;;;;;;;5.57;5.17;;;;;;;;;;4880124;29;20797;-87
2023/07/24 02:13:17;;;;;;;5.30;4.80;;;;;;;;;;4877542;29;20445;-86
2023/07/24 02:15:43;;;;;;;5.03;4.77;;;;;;;;;;4854916;29;20503;-86
2023/07/24 02:18:09;;;;;;;4.53;4.33;;;;;;;;;;4876584;29;20448;-86
2023/07/24 02:20:35;;;;;;;5.30;5.00;;;;;;;;;;4872408;29;21139;-86
2023/07/24 02:23:01;;;;;;;4.23;4.13;;;;;;;;;;4887718;29;20521;-86
2023/07/24 02:25:27;;;;;;;5.10;4.70;;;;;;;;;;4872380;29;20832;-86
2023/07/24 02:27:53;;;;;;;5.77;5.57;;;;;;;;;;4882237;29;20481;-86
2023/07/24 02:30:19;;;;;;;5.10;5.00;;;;;;;;;;4877433;29;20529;-86
2023/07/24 02:32:45;;;;;;;9.83;4.87;;;;;;;;;;4884318;29;20452;-86
2023/07/24 02:35:11;;;;;;;5.17;4.87;;;;;;;;;;4886286;29;20472;-86
2023/07/24 02:37:37;;;;;;;5.17;4.73;;;;;;;;;;4882207;29;20781;-85
2023/07/24 02:40:03;;;;;;;5.07;4.97;;;;;;;;;;4880594;29;20457;-86
2023/07/24 02:42:29;;;;;;;5.03;4.73;;;;;;;;;;4882282;29;20484;-87
2023/07/24 02:44:54;;;;;;;5.60;5.30;;;;;;;;;;4878326;29;20492;-86
2023/07/24 02:47:24;;;;;;;5.23;4.37;;;;;;;;;;4883600;29;20465;-85
2023/07/24 02:49:50;;;;;;;4.70;4.50;;;;;;;;;;4896221;29;20489;-82
2023/07/24 02:52:16;;;;;;;8.37;5.23;;;;;;;;;;4891340;29;20462;-86
2023/07/24 02:54:42;;;;;;;5.97;5.37;;;;;;;;;;4885339;29;20543;-85
2023/07/24 02:57:08;;;;;;;5.37;4.87;;;;;;;;;;4878816;29;20517;-85
2023/07/24 02:59:35;;;;;;;4.73;4.50;;;;;;;;;;4871719;29;20457;-85
2023/07/24 03:02:01;;;;;;;5.40;5.00;;;;;;;;;;4876698;29;20456;-85
2023/07/24 03:04:27;;;;;;;6.20;5.73;;;;;;;;;;4876864;29;20456;-84
2023/07/24 03:06:53;;;;;;;5.27;5.00;;;;;;;;;;4878242;29;20456;-85
2023/07/24 03:09:19;;;;;;;6.00;5.53;;;;;;;;;;4879165;29;20455;-86
2023/07/24 03:11:45;;;;;;;5.53;5.17;;;;;;;;;;4875966;29;20452;-85
2023/07/24 03:14:11;;;;;;;5.90;5.50;;;;;;;;;;4883685;29;20453;-84
2023/07/24 03:16:37;;;;;;;6.87;6.23;;;;;;;;;;4880276;29;20477;-84
2023/07/24 03:19:03;;;;;;;6.40;6.00;;;;;;;;;;4883786;29;20445;-85
2023/07/24 03:21:29;;;;;;;8.20;7.60;;;;;;;;;;4888146;29;20454;-83
2023/07/24 03:23:55;;;;;;;6.07;5.60;;;;;;;;;;4876845;29;20488;-86
2023/07/24 03:26:21;;;;;;;6.73;6.20;;;;;;;;;;4872724;29;21294;-85
2023/07/24 03:28:47;;;;;;;6.30;5.90;;;;;;;;;;4880179;29;20452;-84
2023/07/24 03:31:13;;;;;;;6.73;6.27;;;;;;;;;;4884229;29;20445;-85
2023/07/24 03:33:39;;;;;;;7.17;6.57;;;;;;;;;;4880248;29;20957;-85
2023/07/24 03:36:05;;;;;;;7.37;6.67;;;;;;;;;;4877713;29;20489;-84
2023/07/24 03:38:31;;;;;;;5.20;5.10;;;;;;;;;;4879857;29;20458;-85
2023/07/24 03:40:57;;;;;;;6.33;5.50;;;;;;;;;;4877592;29;20456;-83
2023/07/24 03:43:23;;;;;;;8.13;7.33;;;;;;;;;;4884777;29;20583;-86
2023/07/24 03:45:49;;;;;;;6.27;5.97;;;;;;;;;;4893140;29;20657;-84
2023/07/24 03:48:15;;;;;;;5.93;5.63;;;;;;;;;;4891535;29;20453;-84
2023/07/24 03:50:41;;;;;;;7.00;6.50;;;;;;;;;;4878952;29;20422;-86
2023/07/24 03:53:07;;;;;;;6.73;6.10;;;;;;;;;;4880603;29;20463;-85
2023/07/24 03:55:33;;;;;;;5.73;5.47;;;;;;;;;;4881377;29;20484;-85
2023/07/24 03:57:59;;;;;;;6.33;5.83;;;;;;;;;;4878623;29;20468;-86
2023/07/24 04:00:25;;;;;;;6.63;6.03;;;;;;;;;;4868482;29;20421;-85
2023/07/24 04:02:51;;;;;;;6.50;6.10;;;;;;;;;;4887797;29;20473;-84
2023/07/24 04:05:17;;;;;;;6.87;6.27;;;;;;;;;;4889165;29;20440;-86
2023/07/24 04:07:43;;;;;;;6.43;6.00;;;;;;;;;;4884025;29;21085;-84
2023/07/24 04:10:09;;;;;;;6.37;6.07;;;;;;;;;;4887534;29;20477;-83
2023/07/24 04:12:35;;;;;;;6.83;6.43;;;;;;;;;;4879131;29;20979;-78
2023/07/24 04:15:01;;;;;;;6.20;5.90;;;;;;;;;;4878353;29;20474;-81
2023/07/24 04:17:27;;;;;;;17.30;15.60;;;;;;;;;;4876591;29;20472;-81
2023/07/24 04:19:53;;;;;;;8.10;7.50;;;;;;;;;;4862054;29;20981;-84
2023/07/24 04:22:19;;;;;;;5.73;5.43;;;;;;;;;;4885927;29;20456;-85
2023/07/24 04:24:45;;;;;;;6.17;5.77;;;;;;;;;;4881261;29;20957;-85
2023/07/24 04:27:11;;;;;;;6.33;5.83;;;;;;;;;;4881762;29;20465;-85
2023/07/24 04:29:37;;;;;;;6.87;6.57;;;;;;;;;;4878187;29;21007;-85
2023/07/24 04:32:03;;;;;;;6.40;6.00;;;;;;;;;;4881240;29;20444;-85
2023/07/24 04:34:29;;;;;;;7.00;6.40;;;;;;;;;;4880688;29;20967;-86
2023/07/24 04:36:55;;;;;;;7.30;6.77;;;;;;;;;;4885707;29;20477;-85
2023/07/24 04:39:20;;;;;;;7.17;6.43;;;;;;;;;;4882625;29;20465;-85
2023/07/24 04:41:47;;;;;;;9.03;6.87;;;;;;;;;;4888862;29;20445;-85
2023/07/24 04:44:13;;;;;;;7.50;6.87;;;;;;;;;;4890219;29;20474;-85
2023/07/24 04:46:38;;;;;;;6.80;6.20;;;;;;;;;;4890606;29;20469;-86
2023/07/24 04:49:04;;;;;;;5.90;5.50;;;;;;;;;;4881667;29;20432;-87
2023/07/24 04:51:30;;;;;;;6.37;6.07;;;;;;;;;;4886751;29;20430;-83
2023/07/24 04:53:56;;;;;;;6.33;5.97;;;;;;;;;;4882367;29;20478;-87
2023/07/24 04:56:23;;;;;;;7.13;6.50;;;;;;;;;;4883507;29;20509;-85
2023/07/24 04:58:49;;;;;;;6.43;6.10;;;;;;;;;;4870241;29;21033;-85
2023/07/24 05:01:15;;;;;;;7.17;6.50;;;;;;;;;;4879333;29;20466;-85
2023/07/24 05:03:41;;;;;;;6.27;5.90;;;;;;;;;;4878610;29;21022;-85
2023/07/24 05:06:07;;;;;;;6.67;6.10;;;;;;;;;;4884126;29;20765;-85
2023/07/24 05:08:33;;;;;;;6.63;6.23;;;;;;;;;;4882606;29;20536;-86
2023/07/24 05:10:59;;;;;;;6.43;6.03;;;;;;;;;;4889641;29;20428;-85
2023/07/24 05:13:26;;;;;;;6.50;6.00;;;;;;;;;;4888730;29;20561;-86
2023/07/24 05:15:52;;;;;;;7.37;6.73;;;;;;;;;;4882343;29;20564;-84
2023/07/24 05:18:18;;;;;;;7.23;6.70;;;;;;;;;;4881707;29;20556;-84
2023/07/24 05:20:47;;;;;;;6.90;6.50;;;;;;;;;;4881340;29;20809;-86
2023/07/24 05:23:13;;;;;;;7.00;6.60;;;;;;;;;;4877230;29;20448;-87
2023/07/24 05:25:39;;;;;;;7.30;6.80;;;;;;;;;;4883604;29;20449;-85
2023/07/24 05:28:05;;;;;;;5.20;4.80;;;;;;;;;;4886729;29;20505;-87
2023/07/24 05:30:31;;;;;;;6.87;6.43;;;;;;;;;;4881198;29;20981;-84
2023/07/24 05:32:57;;;;;;;7.17;6.70;;;;;;;;;;4882946;29;20457;-85
2023/07/24 05:35:26;;;;;;;7.17;6.50;;;;;;;;;;4886090;29;20476;-85
2023/07/24 05:37:52;;;;;;;6.77;5.93;;;;;;;;;;4886070;29;20497;-85
2023/07/24 05:40:18;;;;;;;6.87;6.50;;;;;;;;;;4883416;29;20458;-86
2023/07/24 05:42:44;;;;;;;7.67;7.00;;;;;;;;;;4881898;29;20433;-85
2023/07/24 05:45:11;;;;;;;6.53;6.03;;;;;;;;;;4882753;29;20448;-85
2023/07/24 05:47:37;;;;;;;7.00;6.30;;;;;;;;;;4893376;29;20484;-83
2023/07/24 05:50:03;;;;;;;7.53;6.30;;;;;;;;;;4886791;29;20481;-85
2023/07/24 05:52:29;;;;;;;7.40;5.93;;;;;;;;;;4898473;29;20543;-84
2023/07/24 05:54:55;;;;;;;10.33;6.30;;;;;;;;;;4898627;29;20453;-85
2023/07/24 05:57:21;;;;;;;6.60;6.10;;;;;;;;;;4886329;29;20441;-85
2023/07/24 05:59:47;;;;;;;7.60;6.53;;;;;;;;;;4884882;29;20656;-86
2023/07/24 06:02:13;;;;;;;7.90;7.13;;;;;;;;;;4888590;29;20954;-85
2023/07/24 06:04:39;;;;;;;6.43;5.63;;;;;;;;;;4889920;29;20457;-86
2023/07/24 06:07:08;;;;;;;7.03;6.20;;;;;;;;;;4892152;29;21161;-84
2023/07/24 06:09:35;;;;;;;6.83;6.23;;;;;;;;;;4887013;29;20453;-83
2023/07/24 06:12:01;;;;;;;6.53;6.13;;;;;;;;;;4887359;29;20461;-85
2023/07/24 06:14:27;;;;;;;6.47;5.97;;;;;;;;;;4891812;29;20820;-84
2023/07/24 06:16:53;;;;;;;6.60;6.20;;;;;;;;;;4892006;29;20477;-85
2023/07/24 06:19:19;;;;;;;6.83;6.23;;;;;;;;;;4895634;29;20508;-87
2023/07/24 06:21:45;;;;;;;9.53;6.93;;;;;;;;;;4893462;29;20481;-84
2023/07/24 06:24:12;;;;;;;6.97;6.10;;;;;;;;;;4893369;29;20460;-84
2023/07/24 06:26:38;;;;;;;7.30;6.60;;;;;;;;;;4884136;29;20452;-85
2023/07/24 06:29:04;;;;;;;6.90;6.50;;;;;;;;;;4890094;29;20456;-85
2023/07/24 06:31:30;;;;;;;5.90;5.50;;;;;;;;;;4888250;29;20449;-84
2023/07/24 06:33:56;;;;;;;6.10;5.70;;;;;;;;;;4871598;29;20508;-83
2023/07/24 06:36:22;;;;;;;5.97;5.37;;;;;;;;;;4889964;29;20480;-85
2023/07/24 06:38:48;;;;;;;6.73;6.20;;;;;;;;;;4889781;29;20481;-83
2023/07/24 06:41:17;;;;;;;6.67;6.07;;;;;;;;;;4891242;29;20535;-84
2023/07/24 06:43:43;;;;;;;6.20;5.87;;;;;;;;;;4887168;29;20445;-86
2023/07/24 06:46:09;;;;;;;5.40;5.10;;;;;;;;;;4869423;29;20470;-86
2023/07/24 06:48:35;;;;;;;5.70;5.40;;;;;;;;;;4857830;29;20456;-85
2023/07/24 06:51:04;;;;;;;6.57;6.17;;;;;;;;;;4875646;29;20502;-86
2023/07/24 06:53:30;;;;;;;5.40;5.20;;;;;;;;;;4868966;29;20447;-83
2023/07/24 06:55:56;;;;;;;8.40;7.77;;;;;;;;;;4867743;29;20519;-86
2023/07/24 06:58:25;;;;;;;5.57;5.27;;;;;;;;;;4852845;29;20485;-86
2023/07/24 07:00:51;;;;;;;4.97;4.23;;;;;;;;;;4864703;29;20535;-86
2023/07/24 07:03:17;;;;;;;5.60;5.37;;;;;;;;;;4868923;29;20475;-86
2023/07/24 07:05:43;;;;;;;5.27;5.07;;;;;;;;;;4855139;29;20937;-86
2023/07/24 07:08:09;;;;;;;5.23;5.03;;;;;;;;;;4866531;29;20459;-84
2023/07/24 07:10:35;;;;;;;4.30;4.10;;;;;;;;;;4868600;29;20509;-87
2023/07/24 07:13:01;;;;;;;5.80;5.40;;;;;;;;;;4862068;29;20963;-83
2023/07/24 07:15:27;;;;;;;4.90;4.60;;;;;;;;;;4866920;29;20470;-81
2023/07/24 07:17:53;;;;;;;4.80;4.60;;;;;;;;;;4866866;29;20458;-88
2023/07/24 07:20:19;;;;;;;4.63;4.43;;;;;;;;;;4873818;29;20457;-85
2023/07/24 07:22:45;;;;;;;5.50;5.07;;;;;;;;;;4868693;29;20889;-86
2023/07/24 07:25:11;;;;;;;5.10;4.80;;;;;;;;;;4867370;29;20475;-87
2023/07/24 07:27:37;;;;;;;4.57;4.33;;;;;;;;;;4865664;29;21178;-86
2023/07/24 07:30:04;;;;;;;4.63;4.43;;;;;;;;;;4854409;29;22199;-87
2023/07/24 07:32:33;;;;;;;5.53;5.10;;;;;;;;;;4854628;29;20540;-89
2023/07/24 07:34:59;;;;;;;4.30;4.10;;;;;;;;;;4875275;29;20734;-86
2023/07/24 07:37:25;;;;;;;4.80;4.60;;;;;;;;;;4871120;29;20449;-82
2023/07/24 07:39:51;;;;;;;4.97;4.37;;;;;;;;;;4868887;29;20454;-86
2023/07/24 07:42:17;;;;;;;4.60;4.30;;;;;;;;;;4876661;29;20442;-84
2023/07/24 07:44:43;;;;;;;4.83;4.70;;;;;;;;;;4876471;29;20491;-86
2023/07/24 07:47:09;;;;;;;5.53;5.13;;;;;;;;;;4881947;29;21113;-84
2023/07/24 07:49:35;;;;;;;4.47;4.37;;;;;;;;;;4889739;29;20449;-85
2023/07/24 07:52:01;;;;;;;5.50;5.20;;;;;;;;;;4889809;29;20771;-86
2023/07/24 07:54:27;;;;;;;4.07;3.87;;;;;;;;;;4890597;29;20461;-86
2023/07/24 07:56:53;;;;;;;4.60;4.43;;;;;;;;;;4899287;29;20537;-84
2023/07/24 07:59:19;;;;;;;4.80;4.50;;;;;;;;;;4899752;29;20445;-85
2023/07/24 08:01:45;;;;;;;3.73;3.60;;;;;;;;;;4891450;29;20452;-85
2023/07/24 08:04:12;;;;;;;4.73;4.53;;;;;;;;;;4887949;29;20422;-86
2023/07/24 08:06:38;;;;;;;3.43;3.33;;;;;;;;;;4880096;29;20812;-83
2023/07/24 08:09:04;;;;;;;4.33;4.10;;;;;;;;;;4886099;29;20496;-82
2023/07/24 08:11:30;;;;;;;3.40;3.30;;;;;;;;;;4876156;29;20446;-86
2023/07/24 08:13:56;;;;;;;4.13;3.97;;;;;;;;;;4882764;29;20592;-85
2023/07/24 08:16:22;;;;;;;3.73;3.53;;;;;;;;;;4883023;29;20480;-85
2023/07/24 08:18:48;;;;;;;4.27;4.07;;;;;;;;;;4888044;29;20418;-87
2023/07/24 08:21:15;;;;;;;3.57;3.57;;;;;;;;;;4893567;29;20911;-83
2023/07/24 08:23:41;;;;;;;4.10;3.83;;;;;;;;;;4882859;29;20440;-83
2023/07/24 08:26:07;;;;;;;4.77;4.33;;;;;;;;;;4890913;29;20452;-84
2023/07/24 08:28:35;;;;;;;3.77;3.57;;;;;;;;;;4886997;29;20802;-86
2023/07/24 08:31:01;;;;;;;4.90;4.10;;;;;;;;;;4896847;29;20444;-84
2023/07/24 08:33:28;;;;;;;3.60;3.60;;;;;;;;;;4892724;29;20433;-87
2023/07/24 08:35:59;;;;;;;4.93;4.53;;;;;;;;;;4888982;29;20457;-86
2023/07/24 08:38:25;;;;;;;4.33;4.03;;;;;;;;;;4869920;29;20452;-85
2023/07/24 08:41:00;;;;;;;4.87;4.53;;;;;;;;;;4895719;29;20460;-86
2023/07/24 08:43:26;;;;;;;4.80;4.47;;;;;;;;;;4889381;29;20466;-83
2023/07/24 08:45:52;;;;;;;4.40;4.30;;;;;;;;;;4885990;29;20972;-81
2023/07/24 08:48:19;;;;;;;5.13;4.70;;;;;;;;;;4893040;29;20508;-85
2023/07/24 08:50:46;;;;;;;5.10;4.90;;;;;;;;;;4890134;29;20508;-86
2023/07/24 08:53:13;;;;;;;5.93;5.13;;;;;;;;;;4889504;29;20914;-85
2023/07/24 08:55:39;;;;;;;5.43;4.90;;;;;;;;;;4895448;29;20468;-88
2023/07/24 08:58:06;;;;;;;4.27;4.17;;;;;;;;;;4895945;29;20446;-89
2023/07/24 09:00:33;;;;;;;4.77;3.87;;;;;;;;;;4896361;29;20464;-85
2023/07/24 09:02:59;;;;;;;3.53;3.43;;;;;;;;;;4893604;29;20454;-87
2023/07/24 09:05:24;;;;;;;3.93;3.83;;;;;;;;;;4904753;29;20440;-88
2023/07/24 09:07:51;;;;;;;3.60;3.50;;;;;;;;;;4898839;29;20448;-85
2023/07/24 09:10:17;;;;;;;4.33;4.13;;;;;;;;;;4899142;29;20524;-87
2023/07/24 09:12:43;;;;;;;4.90;4.70;;;;;;;;;;4889569;29;20438;-85
2023/07/24 09:15:09;;;;;;;4.20;4.00;;;;;;;;;;4901868;29;20441;-87
2023/07/24 09:17:35;;;;;;;4.10;3.90;;;;;;;;;;4880523;29;20436;-86
2023/07/24 09:20:02;;;;;;;8.47;4.13;;;;;;;;;;4904441;29;20438;-86
2023/07/24 09:22:28;;;;;;;4.30;4.10;;;;;;;;;;4905806;29;20460;-84
2023/07/24 09:24:55;;;;;;;4.47;4.27;;;;;;;;;;4903861;29;20448;-83
2023/07/24 09:27:25;;;;;;;4.67;4.37;;;;;;;;;;4886156;29;20920;-85
2023/07/24 09:29:51;;;;;;;4.47;4.37;;;;;;;;;;4900737;29;20701;-86
2023/07/24 09:32:23;;;;;;;4.13;4.03;;;;;;;;;;4909137;29;20464;-85
2023/07/24 09:34:56;;;;;;;4.20;4.00;;;;;;;;;;4905514;29;20430;-87
2023/07/24 09:37:26;;;;;;;4.17;3.83;;;;;;;;;;4900588;29;20513;-86
2023/07/24 09:39:52;;;;;;;4.83;4.70;;;;;;;;;;4895809;29;20456;-85
2023/07/24 09:42:18;;;;;;;4.40;4.13;;;;;;;;;;4905109;29;20458;-83
2023/07/24 09:44:44;;;;;;;3.90;3.60;;;;;;;;;;4905367;29;20425;-85
2023/07/24 09:47:10;;;;;;;3.67;3.33;;;;;;;;;;4902842;29;20501;-85
2023/07/24 09:49:36;;;;;;;4.03;3.93;;;;;;;;;;4897242;29;20433;-85
2023/07/24 09:52:03;;;;;;;3.63;3.53;;;;;;;;;;4894915;29;20478;-87
2023/07/24 09:54:33;;;;;;;3.87;3.77;;;;;;;;;;4895692;29;21219;-88
2023/07/24 09:57:00;;;;;;;3.30;3.27;;;;;;;;;;4896638;29;20790;-81
2023/07/24 09:59:27;;;;;;;3.43;3.30;;;;;;;;;;4899999;29;20516;-86
2023/07/24 10:01:56;;;;;;;4.03;3.67;;;;;;;;;;4888555;29;20445;-85
2023/07/24 10:04:25;;;;;;;4.00;3.70;;;;;;;;;;4893810;29;20528;-85
2023/07/24 10:06:51;;;;;;;3.10;3.10;;;;;;;;;;4896943;29;20429;-83
2023/07/24 10:09:19;;;;;;;3.40;3.20;;;;;;;;;;4883780;29;20518;-85
2023/07/24 10:11:45;;;;;;;3.37;3.27;;;;;;;;;;4884962;29;20445;-86
2023/07/24 10:14:11;;;;;;;4.10;4.00;;;;;;;;;;4883808;29;20984;-85
2023/07/24 10:16:38;;;;;;;4.43;4.13;;;;;;;;;;4885199;29;20596;-83
2023/07/24 10:19:13;;;;;;;3.90;3.80;;;;;;;;;;4885097;29;20452;-86
2023/07/24 10:21:45;;;;;;;6.30;3.80;;;;;;;;;;4891995;29;20425;-88
2023/07/24 10:24:11;;;;;;;3.97;3.77;;;;;;;;;;4877993;29;21153;-88
2023/07/24 10:26:37;;;;;;;6.37;5.97;;;;;;;;;;4883984;29;20531;-85
2023/07/24 10:29:03;;;;;;;3.83;3.73;;;;;;;;;;4877032;29;20456;-85
2023/07/24 10:31:32;;;;;;;3.83;3.60;;;;;;;;;;4893125;29;20960;-86
2023/07/24 10:34:04;;;;;;;3.67;3.47;;;;;;;;;;4894333;29;20443;-89
2023/07/24 10:36:33;;;;;;;4.07;3.97;;;;;;;;;;4898378;29;20474;-89
2023/07/24 10:39:01;;;;;;;4.20;3.97;;;;;;;;;;4880110;29;20513;-89
2023/07/24 10:41:36;;;;;;;3.90;3.60;;;;;;;;;;4897006;29;20453;-86
2023/07/24 10:44:03;;;;;;;4.77;4.47;;;;;;;;;;4900812;29;20452;-89
2023/07/24 10:46:38;;;;;;;3.43;3.33;;;;;;;;;;4897637;29;20491;-86
2023/07/24 10:49:04;;;;;;;4.30;4.10;;;;;;;;;;4888317;29;20480;-86
2023/07/24 10:51:37;;;;;;;3.57;3.47;;;;;;;;;;4895155;29;20475;-87
2023/07/24 10:54:03;;;;;;;4.57;4.20;;;;;;;;;;4887952;29;21072;-90
2023/07/24 10:56:29;;;;;;;4.43;4.23;;;;;;;;;;4899110;29;20524;-89
2023/07/24 10:58:55;;;;;;;4.20;4.10;;;;;;;;;;4896293;29;20453;-88
2023/07/24 11:01:21;;;;;;;4.73;4.50;;;;;;;;;;4896787;29;20442;-87
2023/07/24 11:03:52;;;;;;;4.37;4.23;;;;;;;;;;4889150;29;20788;-87
2023/07/24 11:06:19;;;;;;;5.10;5.00;;;;;;;;;;4892880;29;20434;-86
2023/07/24 11:08:59;;;;;;;5.20;4.97;;;;;;;;;;4895725;29;20484;-84
2023/07/24 11:11:31;;;;;;;5.10;4.90;;;;;;;;;;4895762;29;20489;-85
2023/07/24 11:13:57;;;;;;;4.60;4.40;;;;;;;;;;4890105;29;20453;-86
2023/07/24 11:16:25;;;;;;;5.73;5.23;;;;;;;;;;4892715;29;20476;-86
2023/07/24 11:18:52;;;;;;;6.73;6.27;;;;;;;;;;4894902;29;20490;-85
2023/07/24 11:21:18;;;;;;;5.40;5.10;;;;;;;;;;4895502;29;20438;-88
2023/07/24 11:23:48;;;;;;;5.10;4.70;;;;;;;;;;4898400;29;20476;-87
2023/07/24 11:26:14;;;;;;;5.80;5.50;;;;;;;;;;4913673;23;20439;-85
2023/07/24 11:28:41;;;;;;;5.77;5.50;;;;;;;;;;4866196;29;20552;-85
2023/07/24 11:31:07;;;;;;;6.40;5.90;;;;;;;;;;4868917;29;20438;-86
2023/07/24 11:33:33;;;;;;;6.80;6.40;;;;;;;;;;4880182;29;20432;-84
2023/07/24 11:36:04;;;;;;;6.60;6.07;;;;;;;;;;4881539;29;20580;-85
2023/07/24 11:38:30;;;;;;;6.90;6.17;;;;;;;;;;4876248;29;20462;-86
2023/07/24 11:40:56;;;;;;;8.70;8.17;;;;;;;;;;4874414;29;20462;-87
2023/07/24 11:43:23;;;;;;;6.10;5.80;;;;;;;;;;4863712;29;20479;-87
2023/07/24 11:45:53;;;;;;;7.60;7.20;;;;;;;;;;4866239;29;20438;-86
2023/07/24 11:48:20;;;;;;;7.97;7.37;;;;;;;;;;4855661;29;20954;-83
2023/07/24 11:50:47;;;;;;;6.70;6.10;;;;;;;;;;4829564;29;21138;-81
2023/07/24 11:53:27;;;;;;;7.57;3.27;;;;;;;;;;4862978;29;20476;-81
2023/07/24 11:55:54;;;;;;;2.17;2.00;;;;;;;;;;4863875;29;20478;-82
2023/07/24 11:58:20;;;;;;;5.07;2.77;;;;;;;;;;4863614;29;20472;-82
2023/07/24 12:00:47;;;;;;;3.40;2.93;;;;;;;;;;4867355;29;20453;-83
2023/07/24 12:03:13;;;;;;;3.53;3.10;;;;;;;;;;4882399;29;20419;-83
2023/07/24 12:05:40;;;;;;;4.27;3.87;;;;;;;;;;4868450;29;20795;-82
2023/07/24 12:08:06;;;;;;;3.00;2.80;;;;;;;;;;4863049;29;20944;-83
2023/07/24 12:10:32;;;;;;;2.70;2.60;;;;;;;;;;4873532;29;20452;-85
2023/07/24 12:13:02;;;;;;;2.27;2.10;;;;;;;;;;4877217;29;20473;-83
2023/07/24 12:15:28;;;;;;;3.83;2.83;;;;;;;;;;4870785;29;20561;-81
2023/07/24 12:17:54;;;;;;;2.67;2.57;;;;;;;;;;4873127;29;20438;-84
2023/07/24 12:20:20;;;;;;;2.23;2.07;;;;;;;;;;4849005;29;20470;-82
2023/07/24 12:22:47;;;;;;;2.43;2.43;;;;;;;;;;4872891;29;20539;-85
2023/07/24 12:25:13;;;;;;;1.30;1.30;;;;;;;;;;4866467;29;21466;-87
2023/07/24 12:27:41;;;;;;;1.30;1.30;;;;;;;;;;4875671;29;20447;-83
2023/07/24 12:30:07;;;;;;;1.80;1.80;;;;;;;;;;4870997;29;20467;-86
2023/07/24 12:32:33;;;;;;;1.40;1.40;;;;;;;;;;4870298;29;20668;-87
2023/07/24 12:34:59;;;;;;;1.77;1.67;;;;;;;;;;4860942;29;20603;-83
2023/07/24 12:37:25;;;;;;;1.20;1.20;;;;;;;;;;4860954;29;20956;-84
2023/07/24 12:39:51;;;;;;;1.60;1.50;;;;;;;;;;4857329;29;20530;-85
2023/07/24 12:42:17;;;;;;;1.93;1.83;;;;;;;;;;4859702;29;20442;-85
2023/07/24 12:44:44;;;;;;;6.00;2.47;;;;;;;;;;4852219;29;20529;-86
2023/07/24 12:47:10;;;;;;;1.93;1.93;;;;;;;;;;4863945;29;20493;-87
2023/07/24 12:49:37;;;;;;;1.90;1.80;;;;;;;;;;4867305;29;20457;-88
2023/07/24 12:52:03;;;;;;;1.93;1.90;;;;;;;;;;4866959;29;20435;-89
2023/07/24 12:54:29;;;;;;;1.53;1.43;;;;;;;;;;4875900;29;20423;-89
2023/07/24 12:56:55;;;;;;;1.43;1.43;;;;;;;;;;4850273;29;20470;-87
2023/07/24 12:59:21;;;;;;;1.80;1.80;;;;;;;;;;4860778;29;20956;-87
2023/07/24 13:01:47;;;;;;;1.50;1.47;;;;;;;;;;4863316;29;20457;-89
2023/07/24 13:09:44;;;;;;;;;;;;;;;;;;;;;
2023/07/24 13:12:11;;;;;;;1.80;1.80;;;;;;;;;;4887949;29;20464;-84
2023/07/24 13:14:40;;;;;;;1.40;1.33;;;;;;;;;;4859396;29;20510;-85
2023/07/24 13:17:35;;;;;;;;;;;;;;;;;;;;;
2023/07/24 13:20:17;;;;;;;;;;;;;;;;;;;;;
2023/07/24 13:22:46;;;;;;;1.90;1.90;;;;;;;;;;4901495;29;20465;-85
2023/07/24 13:25:35;;;;;;;1.50;1.50;;;;;;;;;;4877903;29;20438;-87
2023/07/24 13:28:37;;;;;;;1.63;1.63;;;;;;;;;;4892285;29;20476;-86
2023/07/24 13:31:17;;;;;;;1.60;1.60;;;;;;;;;;4886247;29;20460;-88
2023/07/24 13:33:43;;;;;;;1.70;1.70;;;;;;;;;;4878978;29;20431;-88
2023/07/24 13:36:09;;;;;;;2.30;2.30;;;;;;;;;;4877767;29;20487;-88
2023/07/24 13:38:35;;;;;;;1.90;1.90;;;;;;;;;;4883888;29;20467;-88
2023/07/24 13:41:02;;;;;;;1.60;1.60;;;;;;;;;;4869133;29;20458;-87
2023/07/24 13:43:29;;;;;;;2.00;2.00;;;;;;;;;;4872886;29;20458;-89
2023/07/24 13:45:55;;;;;;;2.20;2.20;;;;;;;;;;4863638;29;20477;-87
2023/07/24 13:48:21;;;;;;;2.00;1.97;;;;;;;;;;4872016;29;20617;-86
2023/07/24 13:50:47;;;;;;;3.30;3.13;;;;;;;;;;4883726;29;20437;-89
2023/07/24 13:53:13;;;;;;;2.70;2.60;;;;;;;;;;4868888;29;20489;-88
2023/07/24 13:55:39;;;;;;;2.93;2.83;;;;;;;;;;4884159;29;20560;-90
2023/07/24 13:58:05;;;;;;;3.33;3.23;;;;;;;;;;4882768;29;20437;-89
2023/07/24 14:00:31;;;;;;;4.60;4.40;;;;;;;;;;4863083;29;20874;-88
2023/07/24 14:03:00;;;;;;;5.77;5.60;;;;;;;;;;4862285;29;20481;-87
2023/07/24 14:05:26;;;;;;;6.40;6.20;;;;;;;;;;4857005;29;21034;-85
2023/07/24 14:07:52;;;;;;;4.77;4.67;;;;;;;;;;4860841;29;20560;-84
2023/07/24 14:10:18;;;;;;;4.23;3.93;;;;;;;;;;4876686;29;20482;-86
2023/07/24 14:12:43;;;;;;;3.20;3.10;;;;;;;;;;4857563;29;20497;-86
2023/07/24 14:15:10;;;;;;;2.80;2.80;;;;;;;;;;4860398;29;20501;-86
2023/07/24 14:17:36;;;;;;;3.47;3.33;;;;;;;;;;4879066;29;20450;-86
2023/07/24 14:20:03;;;;;;;3.97;3.77;;;;;;;;;;4867657;29;20854;-85
2023/07/24 14:22:29;;;;;;;3.63;3.43;;;;;;;;;;4862653;29;20444;-86
2023/07/24 14:24:54;;;;;;;3.17;3.17;;;;;;;;;;4858116;29;20478;-87
2023/07/24 14:27:20;;;;;;;5.33;5.23;;;;;;;;;;4870780;29;20512;-87
2023/07/24 14:29:49;;;;;;;2.60;2.60;;;;;;;;;;4859988;29;20430;-87
2023/07/24 14:32:15;;;;;;;2.93;2.60;;;;;;;;;;4862377;29;20442;-85
2023/07/24 14:34:41;;;;;;;2.53;2.53;;;;;;;;;;4855236;29;20475;-83
2023/07/24 14:37:07;;;;;;;2.67;2.67;;;;;;;;;;4881653;29;20489;-85
2023/07/24 14:39:33;;;;;;;3.03;3.03;;;;;;;;;;4884614;29;20452;-85
2023/07/24 14:41:59;;;;;;;2.63;2.57;;;;;;;;;;4884107;29;20470;-86
2023/07/24 14:44:26;;;;;;;2.50;2.40;;;;;;;;;;4878950;29;20524;-86
2023/07/24 14:46:52;;;;;;;3.10;3.00;;;;;;;;;;4861522;29;20722;-88
2023/07/24 14:49:17;;;;;;;2.70;2.60;;;;;;;;;;4862714;29;20466;-85